sensor_id;sensor_type;location;lat;lon;timestamp;P1;durP1;ratioP1;P2;durP2;ratioP2
65377;SDS011;51982;51.042;13.806;2022-12-18T00:01:24;32.10;;;12.73;;
65377;SDS011;51982;51.042;13.806;2022-12-18T00:03:50;34.53;;;14.30;;
65377;SDS011;51982;51.042;13.806;2022-12-18T00:06:17;31.58;;;13.88;;
65377;SDS011;51982;51.042;13.806;2022-12-18T00:08:43;28.13;;;12.48;;
65377;SDS011;51982;51.042;13.806;2022-12-18T00:11:13;33.28;;;14.93;;
65377;SDS011;51982;51.042;13.806;2022-12-18T00:13:40;37.25;;;14.23;;
65377;SDS011;51982;51.042;13.806;2022-12-18T00:16:07;36.78;;;15.95;;
65377;SDS011;51982;51.042;13.806;2022-12-18T00:18:35;38.42;;;15.35;;
65377;SDS011;51982;51.042;13.806;2022-12-18T00:21:01;36.17;;;14.63;;
65377;SDS011;51982;51.042;13.806;2022-12-18T00:23:29;30.48;;;12.45;;
65377;SDS011;51982;51.042;13.806;2022-12-18T00:25:54;31.23;;;12.88;;
65377;SDS011;51982;51.042;13.806;2022-12-18T00:28:23;33.47;;;12.75;;
65377;SDS011;51982;51.042;13.806;2022-12-18T00:30:49;23.00;;;10.85;;
65377;SDS011;51982;51.042;13.806;2022-12-18T00:33:16;24.30;;;11.50;;
65377;SDS011;51982;51.042;13.806;2022-12-18T00:35:42;25.65;;;12.10;;
65377;SDS011;51982;51.042;13.806;2022-12-18T00:38:07;32.00;;;13.00;;
65377;SDS011;51982;51.042;13.806;2022-12-18T00:40:32;27.33;;;11.88;;
65377;SDS011;51982;51.042;13.806;2022-12-18T00:42:58;35.95;;;11.98;;
65377;SDS011;51982;51.042;13.806;2022-12-18T00:45:27;29.08;;;12.23;;
65377;SDS011;51982;51.042;13.806;2022-12-18T00:47:56;30.42;;;13.07;;
65377;SDS011;51982;51.042;13.806;2022-12-18T00:50:23;26.80;;;10.75;;
65377;SDS011;51982;51.042;13.806;2022-12-18T00:52:50;24.50;;;11.18;;
65377;SDS011;51982;51.042;13.806;2022-12-18T00:55:15;25.40;;;10.90;;
65377;SDS011;51982;51.042;13.806;2022-12-18T00:57:41;24.45;;;10.20;;
65377;SDS011;51982;51.042;13.806;2022-12-18T01:00:07;31.52;;;11.68;;
65377;SDS011;51982;51.042;13.806;2022-12-18T01:02:34;17.98;;;7.43;;
65377;SDS011;51982;51.042;13.806;2022-12-18T01:04:59;24.75;;;9.40;;
65377;SDS011;51982;51.042;13.806;2022-12-18T01:07:25;19.70;;;9.88;;
65377;SDS011;51982;51.042;13.806;2022-12-18T01:09:50;25.67;;;10.18;;
65377;SDS011;51982;51.042;13.806;2022-12-18T01:12:15;21.77;;;9.77;;
65377;SDS011;51982;51.042;13.806;2022-12-18T01:14:40;28.25;;;10.82;;
65377;SDS011;51982;51.042;13.806;2022-12-18T01:17:06;19.33;;;8.88;;
65377;SDS011;51982;51.042;13.806;2022-12-18T01:19:31;24.77;;;10.23;;
65377;SDS011;51982;51.042;13.806;2022-12-18T01:21:57;16.58;;;7.97;;
65377;SDS011;51982;51.042;13.806;2022-12-18T01:24:23;20.40;;;8.25;;
65377;SDS011;51982;51.042;13.806;2022-12-18T01:26:48;20.15;;;8.38;;
65377;SDS011;51982;51.042;13.806;2022-12-18T01:29:13;21.55;;;8.55;;
65377;SDS011;51982;51.042;13.806;2022-12-18T01:31:39;15.02;;;7.68;;
65377;SDS011;51982;51.042;13.806;2022-12-18T01:34:04;26.35;;;10.35;;
65377;SDS011;51982;51.042;13.806;2022-12-18T01:36:31;19.80;;;7.93;;
65377;SDS011;51982;51.042;13.806;2022-12-18T01:39:01;24.08;;;8.48;;
65377;SDS011;51982;51.042;13.806;2022-12-18T01:41:35;20.90;;;8.55;;
65377;SDS011;51982;51.042;13.806;2022-12-18T01:47:18;22.67;;;8.32;;
65377;SDS011;51982;51.042;13.806;2022-12-18T01:49:49;17.95;;;6.97;;
65377;SDS011;51982;51.042;13.806;2022-12-18T01:52:14;12.25;;;5.90;;
65377;SDS011;51982;51.042;13.806;2022-12-18T01:54:41;15.65;;;6.15;;
65377;SDS011;51982;51.042;13.806;2022-12-18T01:57:07;14.10;;;5.80;;
65377;SDS011;51982;51.042;13.806;2022-12-18T01:59:33;16.10;;;7.57;;
65377;SDS011;51982;51.042;13.806;2022-12-18T02:02:00;15.43;;;6.57;;
65377;SDS011;51982;51.042;13.806;2022-12-18T02:04:27;13.40;;;6.10;;
65377;SDS011;51982;51.042;13.806;2022-12-18T02:12:22;16.17;;;5.75;;
65377;SDS011;51982;51.042;13.806;2022-12-18T02:14:52;15.20;;;6.82;;
65377;SDS011;51982;51.042;13.806;2022-12-18T02:17:27;12.40;;;6.15;;
65377;SDS011;51982;51.042;13.806;2022-12-18T02:20:12;15.88;;;5.97;;
65377;SDS011;51982;51.042;13.806;2022-12-18T02:28:16;12.88;;;5.82;;
65377;SDS011;51982;51.042;13.806;2022-12-18T02:30:46;17.30;;;6.43;;
65377;SDS011;51982;51.042;13.806;2022-12-18T02:33:13;15.63;;;6.03;;
65377;SDS011;51982;51.042;13.806;2022-12-18T02:35:40;14.95;;;6.00;;
65377;SDS011;51982;51.042;13.806;2022-12-18T02:38:06;14.70;;;6.53;;
65377;SDS011;51982;51.042;13.806;2022-12-18T02:40:31;12.82;;;5.35;;
65377;SDS011;51982;51.042;13.806;2022-12-18T02:43:07;17.25;;;5.88;;
65377;SDS011;51982;51.042;13.806;2022-12-18T02:45:34;12.60;;;4.80;;
65377;SDS011;51982;51.042;13.806;2022-12-18T02:48:00;12.95;;;5.10;;
65377;SDS011;51982;51.042;13.806;2022-12-18T03:01:24;10.40;;;4.93;;
65377;SDS011;51982;51.042;13.806;2022-12-18T03:04:04;9.15;;;4.28;;
65377;SDS011;51982;51.042;13.806;2022-12-18T03:06:42;13.15;;;5.75;;
65377;SDS011;51982;51.042;13.806;2022-12-18T03:09:14;9.23;;;5.00;;
65377;SDS011;51982;51.042;13.806;2022-12-18T03:11:45;12.50;;;5.43;;
65377;SDS011;51982;51.042;13.806;2022-12-18T03:14:36;8.85;;;4.55;;
65377;SDS011;51982;51.042;13.806;2022-12-18T03:17:03;16.27;;;4.90;;
65377;SDS011;51982;51.042;13.806;2022-12-18T03:19:32;13.40;;;4.78;;
65377;SDS011;51982;51.042;13.806;2022-12-18T03:21:58;7.93;;;3.33;;
65377;SDS011;51982;51.042;13.806;2022-12-18T03:24:29;9.73;;;5.07;;
65377;SDS011;51982;51.042;13.806;2022-12-18T03:26:59;13.73;;;5.45;;
65377;SDS011;51982;51.042;13.806;2022-12-18T03:32:09;12.55;;;5.28;;
65377;SDS011;51982;51.042;13.806;2022-12-18T03:34:37;9.05;;;4.07;;
65377;SDS011;51982;51.042;13.806;2022-12-18T03:37:05;6.95;;;3.63;;
65377;SDS011;51982;51.042;13.806;2022-12-18T03:39:31;6.57;;;3.65;;
65377;SDS011;51982;51.042;13.806;2022-12-18T03:44:47;4.78;;;2.42;;
65377;SDS011;51982;51.042;13.806;2022-12-18T03:47:16;9.40;;;4.03;;
65377;SDS011;51982;51.042;13.806;2022-12-18T03:52:26;9.95;;;3.88;;
65377;SDS011;51982;51.042;13.806;2022-12-18T03:54:57;10.50;;;4.20;;
65377;SDS011;51982;51.042;13.806;2022-12-18T03:57:25;10.05;;;5.05;;
65377;SDS011;51982;51.042;13.806;2022-12-18T03:59:55;10.85;;;4.40;;
65377;SDS011;51982;51.042;13.806;2022-12-18T04:02:22;10.85;;;3.90;;
65377;SDS011;51982;51.042;13.806;2022-12-18T04:04:50;12.25;;;4.55;;
65377;SDS011;51982;51.042;13.806;2022-12-18T04:07:18;13.10;;;4.93;;
65377;SDS011;51982;51.042;13.806;2022-12-18T04:09:44;9.57;;;4.55;;
65377;SDS011;51982;51.042;13.806;2022-12-18T04:12:10;6.07;;;3.05;;
65377;SDS011;51982;51.042;13.806;2022-12-18T04:14:36;8.65;;;4.07;;
65377;SDS011;51982;51.042;13.806;2022-12-18T04:17:01;14.68;;;4.82;;
65377;SDS011;51982;51.042;13.806;2022-12-18T04:19:27;7.78;;;4.15;;
65377;SDS011;51982;51.042;13.806;2022-12-18T04:21:53;11.43;;;4.47;;
65377;SDS011;51982;51.042;13.806;2022-12-18T04:24:18;9.70;;;4.57;;
65377;SDS011;51982;51.042;13.806;2022-12-18T04:26:43;11.18;;;4.90;;
65377;SDS011;51982;51.042;13.806;2022-12-18T04:29:09;8.13;;;3.58;;
65377;SDS011;51982;51.042;13.806;2022-12-18T04:31:34;12.23;;;5.18;;
65377;SDS011;51982;51.042;13.806;2022-12-18T04:33:59;9.48;;;4.75;;
65377;SDS011;51982;51.042;13.806;2022-12-18T04:36:25;12.18;;;4.03;;
65377;SDS011;51982;51.042;13.806;2022-12-18T04:38:50;5.95;;;3.03;;
65377;SDS011;51982;51.042;13.806;2022-12-18T04:41:15;9.02;;;4.30;;
65377;SDS011;51982;51.042;13.806;2022-12-18T04:43:40;10.65;;;3.80;;
65377;SDS011;51982;51.042;13.806;2022-12-18T04:46:06;10.65;;;4.10;;
65377;SDS011;51982;51.042;13.806;2022-12-18T04:48:32;9.35;;;4.07;;
65377;SDS011;51982;51.042;13.806;2022-12-18T04:50:58;9.45;;;4.10;;
65377;SDS011;51982;51.042;13.806;2022-12-18T04:53:23;8.45;;;4.10;;
65377;SDS011;51982;51.042;13.806;2022-12-18T04:55:49;9.00;;;3.40;;
65377;SDS011;51982;51.042;13.806;2022-12-18T04:58:14;10.13;;;3.78;;
65377;SDS011;51982;51.042;13.806;2022-12-18T05:00:39;7.68;;;3.83;;
65377;SDS011;51982;51.042;13.806;2022-12-18T05:03:05;8.05;;;3.80;;
65377;SDS011;51982;51.042;13.806;2022-12-18T05:05:30;9.18;;;3.47;;
65377;SDS011;51982;51.042;13.806;2022-12-18T05:07:55;4.45;;;2.38;;
65377;SDS011;51982;51.042;13.806;2022-12-18T05:10:21;7.85;;;4.32;;
65377;SDS011;51982;51.042;13.806;2022-12-18T05:12:46;5.60;;;3.33;;
65377;SDS011;51982;51.042;13.806;2022-12-18T05:15:32;9.85;;;3.90;;
65377;SDS011;51982;51.042;13.806;2022-12-18T05:17:58;9.25;;;3.60;;
65377;SDS011;51982;51.042;13.806;2022-12-18T05:20:25;7.88;;;3.42;;
65377;SDS011;51982;51.042;13.806;2022-12-18T05:22:51;9.15;;;2.90;;
65377;SDS011;51982;51.042;13.806;2022-12-18T05:25:16;8.00;;;2.88;;
65377;SDS011;51982;51.042;13.806;2022-12-18T05:27:42;7.53;;;3.10;;
65377;SDS011;51982;51.042;13.806;2022-12-18T05:30:07;6.97;;;2.97;;
65377;SDS011;51982;51.042;13.806;2022-12-18T05:32:33;5.40;;;2.33;;
65377;SDS011;51982;51.042;13.806;2022-12-18T05:34:58;6.93;;;3.35;;
65377;SDS011;51982;51.042;13.806;2022-12-18T05:37:24;8.98;;;3.63;;
65377;SDS011;51982;51.042;13.806;2022-12-18T05:39:49;6.63;;;3.05;;
65377;SDS011;51982;51.042;13.806;2022-12-18T05:42:14;8.63;;;3.22;;
65377;SDS011;51982;51.042;13.806;2022-12-18T05:44:39;8.15;;;3.80;;
65377;SDS011;51982;51.042;13.806;2022-12-18T05:47:05;6.50;;;3.75;;
65377;SDS011;51982;51.042;13.806;2022-12-18T05:49:31;10.10;;;3.60;;
65377;SDS011;51982;51.042;13.806;2022-12-18T05:51:56;6.88;;;3.25;;
65377;SDS011;51982;51.042;13.806;2022-12-18T05:54:21;6.30;;;3.28;;
65377;SDS011;51982;51.042;13.806;2022-12-18T05:56:47;7.28;;;2.65;;
65377;SDS011;51982;51.042;13.806;2022-12-18T05:59:12;6.22;;;2.70;;
65377;SDS011;51982;51.042;13.806;2022-12-18T06:01:37;8.25;;;3.97;;
65377;SDS011;51982;51.042;13.806;2022-12-18T06:04:03;6.65;;;3.13;;
65377;SDS011;51982;51.042;13.806;2022-12-18T06:06:28;6.97;;;3.88;;
65377;SDS011;51982;51.042;13.806;2022-12-18T06:08:54;8.15;;;3.85;;
65377;SDS011;51982;51.042;13.806;2022-12-18T06:11:21;11.35;;;3.47;;
65377;SDS011;51982;51.042;13.806;2022-12-18T06:13:52;7.03;;;3.60;;
65377;SDS011;51982;51.042;13.806;2022-12-18T06:16:18;8.00;;;3.75;;
65377;SDS011;51982;51.042;13.806;2022-12-18T06:18:43;12.60;;;4.20;;
65377;SDS011;51982;51.042;13.806;2022-12-18T06:21:09;7.00;;;3.70;;
65377;SDS011;51982;51.042;13.806;2022-12-18T06:23:34;6.95;;;3.58;;
65377;SDS011;51982;51.042;13.806;2022-12-18T06:26:04;5.75;;;2.95;;
65377;SDS011;51982;51.042;13.806;2022-12-18T06:28:30;10.80;;;4.25;;
65377;SDS011;51982;51.042;13.806;2022-12-18T06:30:55;7.90;;;4.03;;
65377;SDS011;51982;51.042;13.806;2022-12-18T06:33:21;8.73;;;4.10;;
65377;SDS011;51982;51.042;13.806;2022-12-18T06:35:46;9.00;;;4.20;;
65377;SDS011;51982;51.042;13.806;2022-12-18T06:38:11;13.85;;;3.88;;
65377;SDS011;51982;51.042;13.806;2022-12-18T06:40:37;9.23;;;4.55;;
65377;SDS011;51982;51.042;13.806;2022-12-18T06:43:04;9.30;;;4.05;;
65377;SDS011;51982;51.042;13.806;2022-12-18T06:45:29;7.32;;;3.10;;
65377;SDS011;51982;51.042;13.806;2022-12-18T06:47:55;10.32;;;3.92;;
65377;SDS011;51982;51.042;13.806;2022-12-18T06:50:20;6.55;;;3.33;;
65377;SDS011;51982;51.042;13.806;2022-12-18T06:52:45;10.68;;;4.30;;
65377;SDS011;51982;51.042;13.806;2022-12-18T06:55:10;8.63;;;4.07;;
65377;SDS011;51982;51.042;13.806;2022-12-18T06:57:36;8.75;;;4.72;;
65377;SDS011;51982;51.042;13.806;2022-12-18T07:00:02;10.40;;;4.60;;
65377;SDS011;51982;51.042;13.806;2022-12-18T07:02:29;9.30;;;3.85;;
65377;SDS011;51982;51.042;13.806;2022-12-18T07:04:54;8.95;;;4.15;;
65377;SDS011;51982;51.042;13.806;2022-12-18T07:07:19;11.25;;;4.65;;
65377;SDS011;51982;51.042;13.806;2022-12-18T07:09:44;11.98;;;3.92;;
65377;SDS011;51982;51.042;13.806;2022-12-18T07:12:10;8.18;;;3.70;;
65377;SDS011;51982;51.042;13.806;2022-12-18T07:14:35;7.72;;;3.95;;
65377;SDS011;51982;51.042;13.806;2022-12-18T07:17:00;10.38;;;4.38;;
65377;SDS011;51982;51.042;13.806;2022-12-18T07:19:25;11.25;;;5.05;;
65377;SDS011;51982;51.042;13.806;2022-12-18T07:21:51;8.07;;;4.13;;
65377;SDS011;51982;51.042;13.806;2022-12-18T07:24:16;9.57;;;4.65;;
65377;SDS011;51982;51.042;13.806;2022-12-18T07:26:41;10.80;;;4.95;;
65377;SDS011;51982;51.042;13.806;2022-12-18T07:29:07;9.05;;;4.88;;
65377;SDS011;51982;51.042;13.806;2022-12-18T07:31:33;10.27;;;4.60;;
65377;SDS011;51982;51.042;13.806;2022-12-18T07:33:58;12.20;;;5.45;;
65377;SDS011;51982;51.042;13.806;2022-12-18T07:36:23;11.27;;;6.22;;
65377;SDS011;51982;51.042;13.806;2022-12-18T07:38:49;15.75;;;5.05;;
65377;SDS011;51982;51.042;13.806;2022-12-18T07:41:15;8.00;;;4.45;;
65377;SDS011;51982;51.042;13.806;2022-12-18T07:43:41;12.88;;;5.63;;
65377;SDS011;51982;51.042;13.806;2022-12-18T07:46:06;10.32;;;5.07;;
65377;SDS011;51982;51.042;13.806;2022-12-18T07:48:32;9.48;;;3.53;;
65377;SDS011;51982;51.042;13.806;2022-12-18T07:51:04;10.77;;;4.53;;
65377;SDS011;51982;51.042;13.806;2022-12-18T07:53:31;7.68;;;4.22;;
65377;SDS011;51982;51.042;13.806;2022-12-18T07:55:57;8.50;;;4.38;;
65377;SDS011;51982;51.042;13.806;2022-12-18T07:58:24;13.00;;;5.45;;
65377;SDS011;51982;51.042;13.806;2022-12-18T08:00:50;14.45;;;5.70;;
65377;SDS011;51982;51.042;13.806;2022-12-18T08:03:15;13.43;;;5.43;;
65377;SDS011;51982;51.042;13.806;2022-12-18T08:05:41;14.75;;;6.15;;
65377;SDS011;51982;51.042;13.806;2022-12-18T08:08:06;6.97;;;3.78;;
65377;SDS011;51982;51.042;13.806;2022-12-18T08:10:31;16.73;;;5.78;;
65377;SDS011;51982;51.042;13.806;2022-12-18T08:12:56;10.88;;;4.88;;
65377;SDS011;51982;51.042;13.806;2022-12-18T08:15:23;15.15;;;6.57;;
65377;SDS011;51982;51.042;13.806;2022-12-18T08:17:48;16.33;;;5.95;;
65377;SDS011;51982;51.042;13.806;2022-12-18T08:20:13;11.82;;;5.72;;
65377;SDS011;51982;51.042;13.806;2022-12-18T08:22:40;16.70;;;6.82;;
65377;SDS011;51982;51.042;13.806;2022-12-18T08:25:06;10.02;;;5.07;;
65377;SDS011;51982;51.042;13.806;2022-12-18T08:27:32;18.13;;;7.93;;
65377;SDS011;51982;51.042;13.806;2022-12-18T08:29:57;16.95;;;6.53;;
65377;SDS011;51982;51.042;13.806;2022-12-18T08:32:23;17.60;;;4.85;;
65377;SDS011;51982;51.042;13.806;2022-12-18T08:34:49;15.00;;;6.53;;
65377;SDS011;51982;51.042;13.806;2022-12-18T08:37:14;12.32;;;6.10;;
65377;SDS011;51982;51.042;13.806;2022-12-18T08:39:39;17.83;;;6.85;;
65377;SDS011;51982;51.042;13.806;2022-12-18T08:42:04;13.32;;;6.20;;
65377;SDS011;51982;51.042;13.806;2022-12-18T08:44:48;12.38;;;5.45;;
65377;SDS011;51982;51.042;13.806;2022-12-18T08:47:14;17.65;;;5.90;;
65377;SDS011;51982;51.042;13.806;2022-12-18T08:49:39;16.45;;;7.07;;
65377;SDS011;51982;51.042;13.806;2022-12-18T08:52:05;14.48;;;6.30;;
65377;SDS011;51982;51.042;13.806;2022-12-18T08:54:30;18.48;;;6.53;;
65377;SDS011;51982;51.042;13.806;2022-12-18T08:56:55;19.95;;;7.30;;
65377;SDS011;51982;51.042;13.806;2022-12-18T08:59:21;19.17;;;6.88;;
65377;SDS011;51982;51.042;13.806;2022-12-18T09:01:48;16.13;;;6.80;;
65377;SDS011;51982;51.042;13.806;2022-12-18T09:04:13;18.55;;;7.18;;
65377;SDS011;51982;51.042;13.806;2022-12-18T09:06:41;24.48;;;7.45;;
65377;SDS011;51982;51.042;13.806;2022-12-18T09:09:06;20.05;;;7.30;;
65377;SDS011;51982;51.042;13.806;2022-12-18T09:11:32;18.88;;;7.90;;
65377;SDS011;51982;51.042;13.806;2022-12-18T09:13:59;17.90;;;7.35;;
65377;SDS011;51982;51.042;13.806;2022-12-18T09:16:25;16.45;;;5.72;;
65377;SDS011;51982;51.042;13.806;2022-12-18T09:18:52;18.60;;;6.85;;
65377;SDS011;51982;51.042;13.806;2022-12-18T09:21:24;9.27;;;4.10;;
65377;SDS011;51982;51.042;13.806;2022-12-18T09:23:51;21.63;;;6.63;;
65377;SDS011;51982;51.042;13.806;2022-12-18T09:26:17;15.88;;;6.57;;
65377;SDS011;51982;51.042;13.806;2022-12-18T09:28:43;17.95;;;7.10;;
65377;SDS011;51982;51.042;13.806;2022-12-18T09:31:10;15.40;;;6.30;;
65377;SDS011;51982;51.042;13.806;2022-12-18T09:33:40;16.10;;;6.35;;
65377;SDS011;51982;51.042;13.806;2022-12-18T09:36:06;20.40;;;5.53;;
65377;SDS011;51982;51.042;13.806;2022-12-18T09:38:33;8.15;;;3.47;;
65377;SDS011;51982;51.042;13.806;2022-12-18T09:41:00;18.70;;;7.20;;
65377;SDS011;51982;51.042;13.806;2022-12-18T09:43:50;17.33;;;6.68;;
65377;SDS011;51982;51.042;13.806;2022-12-18T09:46:23;22.17;;;7.60;;
65377;SDS011;51982;51.042;13.806;2022-12-18T09:48:54;19.50;;;6.95;;
65377;SDS011;51982;51.042;13.806;2022-12-18T09:51:24;13.10;;;6.45;;
65377;SDS011;51982;51.042;13.806;2022-12-18T09:53:55;18.27;;;6.25;;
65377;SDS011;51982;51.042;13.806;2022-12-18T09:56:24;17.55;;;7.07;;
65377;SDS011;51982;51.042;13.806;2022-12-18T09:58:55;15.63;;;6.28;;
65377;SDS011;51982;51.042;13.806;2022-12-18T10:01:23;18.20;;;7.22;;
65377;SDS011;51982;51.042;13.806;2022-12-18T10:03:50;9.30;;;4.28;;
65377;SDS011;51982;51.042;13.806;2022-12-18T10:14:57;14.95;;;7.00;;
65377;SDS011;51982;51.042;13.806;2022-12-18T10:20:49;9.25;;;4.90;;
65377;SDS011;51982;51.042;13.806;2022-12-18T10:23:20;17.38;;;5.63;;
65377;SDS011;51982;51.042;13.806;2022-12-18T10:26:03;15.20;;;6.38;;
65377;SDS011;51982;51.042;13.806;2022-12-18T10:28:31;12.52;;;5.90;;
65377;SDS011;51982;51.042;13.806;2022-12-18T10:30:58;20.13;;;8.30;;
65377;SDS011;51982;51.042;13.806;2022-12-18T10:33:24;11.35;;;4.15;;
65377;SDS011;51982;51.042;13.806;2022-12-18T10:35:53;16.45;;;6.90;;
65377;SDS011;51982;51.042;13.806;2022-12-18T10:43:36;25.63;;;7.43;;
65377;SDS011;51982;51.042;13.806;2022-12-18T10:48:47;10.00;;;4.03;;
65377;SDS011;51982;51.042;13.806;2022-12-18T10:51:27;14.45;;;5.50;;
65377;SDS011;51982;51.042;13.806;2022-12-18T10:54:28;22.95;;;8.25;;
65377;SDS011;51982;51.042;13.806;2022-12-18T10:56:47;12.88;;;5.13;;
65377;SDS011;51982;51.042;13.806;2022-12-18T10:59:16;18.45;;;7.00;;
65377;SDS011;51982;51.042;13.806;2022-12-18T11:01:52;19.98;;;7.90;;
65377;SDS011;51982;51.042;13.806;2022-12-18T11:04:25;14.25;;;5.80;;
65377;SDS011;51982;51.042;13.806;2022-12-18T11:06:54;8.98;;;4.13;;
65377;SDS011;51982;51.042;13.806;2022-12-18T11:09:27;19.83;;;8.10;;
65377;SDS011;51982;51.042;13.806;2022-12-18T11:11:58;15.65;;;6.55;;
65377;SDS011;51982;51.042;13.806;2022-12-18T11:14:29;21.65;;;6.65;;
65377;SDS011;51982;51.042;13.806;2022-12-18T11:17:16;19.58;;;6.25;;
65377;SDS011;51982;51.042;13.806;2022-12-18T11:19:51;19.77;;;7.88;;
65377;SDS011;51982;51.042;13.806;2022-12-18T11:22:25;25.45;;;9.30;;
65377;SDS011;51982;51.042;13.806;2022-12-18T11:24:55;20.30;;;8.05;;
65377;SDS011;51982;51.042;13.806;2022-12-18T11:27:25;19.00;;;7.72;;
65377;SDS011;51982;51.042;13.806;2022-12-18T11:29:52;15.23;;;5.10;;
65377;SDS011;51982;51.042;13.806;2022-12-18T11:32:39;14.00;;;5.43;;
65377;SDS011;51982;51.042;13.806;2022-12-18T11:37:43;21.98;;;6.32;;
65377;SDS011;51982;51.042;13.806;2022-12-18T11:40:16;17.10;;;7.22;;
65377;SDS011;51982;51.042;13.806;2022-12-18T11:45:27;11.82;;;4.97;;
65377;SDS011;51982;51.042;13.806;2022-12-18T11:53:12;12.60;;;5.22;;
65377;SDS011;51982;51.042;13.806;2022-12-18T11:58:38;19.25;;;7.63;;
65377;SDS011;51982;51.042;13.806;2022-12-18T12:01:14;14.73;;;6.32;;
65377;SDS011;51982;51.042;13.806;2022-12-18T12:06:24;16.88;;;7.25;;
65377;SDS011;51982;51.042;13.806;2022-12-18T12:09:19;20.10;;;7.55;;
65377;SDS011;51982;51.042;13.806;2022-12-18T12:12:03;18.85;;;6.30;;
65377;SDS011;51982;51.042;13.806;2022-12-18T12:25:45;17.10;;;5.93;;
65377;SDS011;51982;51.042;13.806;2022-12-18T12:36:18;23.27;;;7.88;;
65377;SDS011;51982;51.042;13.806;2022-12-18T12:38:52;21.05;;;7.85;;
65377;SDS011;51982;51.042;13.806;2022-12-18T12:41:23;11.50;;;4.90;;
65377;SDS011;51982;51.042;13.806;2022-12-18T12:44:14;11.85;;;5.05;;
65377;SDS011;51982;51.042;13.806;2022-12-18T12:46:44;16.15;;;6.93;;
65377;SDS011;51982;51.042;13.806;2022-12-18T12:49:12;22.77;;;7.40;;
65377;SDS011;51982;51.042;13.806;2022-12-18T12:51:40;17.20;;;6.70;;
65377;SDS011;51982;51.042;13.806;2022-12-18T12:54:16;20.05;;;7.15;;
65377;SDS011;51982;51.042;13.806;2022-12-18T12:56:46;15.55;;;6.70;;
65377;SDS011;51982;51.042;13.806;2022-12-18T13:02:03;15.32;;;7.32;;
65377;SDS011;51982;51.042;13.806;2022-12-18T13:07:24;14.68;;;5.30;;
65377;SDS011;51982;51.042;13.806;2022-12-18T13:12:50;21.73;;;8.95;;
65377;SDS011;51982;51.042;13.806;2022-12-18T13:15:23;18.23;;;6.72;;
65377;SDS011;51982;51.042;13.806;2022-12-18T13:18:04;19.02;;;6.93;;
65377;SDS011;51982;51.042;13.806;2022-12-18T13:20:32;16.25;;;5.35;;
65377;SDS011;51982;51.042;13.806;2022-12-18T13:22:59;14.52;;;6.50;;
65377;SDS011;51982;51.042;13.806;2022-12-18T13:28:06;17.45;;;8.48;;
65377;SDS011;51982;51.042;13.806;2022-12-18T13:30:43;15.07;;;6.65;;
65377;SDS011;51982;51.042;13.806;2022-12-18T13:35:53;13.02;;;4.55;;
65377;SDS011;51982;51.042;13.806;2022-12-18T13:38:33;8.43;;;3.90;;
65377;SDS011;51982;51.042;13.806;2022-12-18T13:46:17;10.05;;;4.55;;
65377;SDS011;51982;51.042;13.806;2022-12-18T13:49:03;19.05;;;7.10;;
65377;SDS011;51982;51.042;13.806;2022-12-18T13:51:43;16.67;;;6.88;;
65377;SDS011;51982;51.042;13.806;2022-12-18T13:56:59;21.38;;;6.38;;
65377;SDS011;51982;51.042;13.806;2022-12-18T13:59:25;17.85;;;6.75;;
65377;SDS011;51982;51.042;13.806;2022-12-18T14:01:58;15.30;;;5.82;;
65377;SDS011;51982;51.042;13.806;2022-12-18T14:05:04;8.35;;;3.13;;
65377;SDS011;51982;51.042;13.806;2022-12-18T14:07:29;13.70;;;5.22;;
65377;SDS011;51982;51.042;13.806;2022-12-18T14:09:57;10.85;;;4.80;;
65377;SDS011;51982;51.042;13.806;2022-12-18T14:12:26;12.18;;;5.32;;
65377;SDS011;51982;51.042;13.806;2022-12-18T14:18:00;20.25;;;6.25;;
65377;SDS011;51982;51.042;13.806;2022-12-18T14:20:45;8.73;;;3.92;;
65377;SDS011;51982;51.042;13.806;2022-12-18T14:23:27;12.38;;;5.50;;
65377;SDS011;51982;51.042;13.806;2022-12-18T14:25:54;22.73;;;7.17;;
65377;SDS011;51982;51.042;13.806;2022-12-18T14:28:20;14.65;;;5.53;;
65377;SDS011;51982;51.042;13.806;2022-12-18T14:30:47;10.20;;;4.97;;
65377;SDS011;51982;51.042;13.806;2022-12-18T14:33:16;10.45;;;5.38;;
65377;SDS011;51982;51.042;13.806;2022-12-18T14:38:20;16.25;;;3.60;;
65377;SDS011;51982;51.042;13.806;2022-12-18T14:41:24;8.93;;;4.20;;
65377;SDS011;51982;51.042;13.806;2022-12-18T14:43:43;16.10;;;5.60;;
65377;SDS011;51982;51.042;13.806;2022-12-18T14:48:57;9.10;;;4.40;;
65377;SDS011;51982;51.042;13.806;2022-12-18T14:51:25;10.48;;;4.25;;
65377;SDS011;51982;51.042;13.806;2022-12-18T14:53:56;16.85;;;7.20;;
65377;SDS011;51982;51.042;13.806;2022-12-18T14:58:48;13.80;;;6.13;;
65377;SDS011;51982;51.042;13.806;2022-12-18T15:01:20;13.57;;;4.80;;
65377;SDS011;51982;51.042;13.806;2022-12-18T15:03:47;11.15;;;5.97;;
65377;SDS011;51982;51.042;13.806;2022-12-18T15:09:21;18.33;;;5.53;;
65377;SDS011;51982;51.042;13.806;2022-12-18T15:11:48;12.45;;;5.70;;
65377;SDS011;51982;51.042;13.806;2022-12-18T15:14:23;9.30;;;4.13;;
65377;SDS011;51982;51.042;13.806;2022-12-18T15:16:55;11.15;;;4.25;;
65377;SDS011;51982;51.042;13.806;2022-12-18T15:19:22;17.80;;;6.65;;
65377;SDS011;51982;51.042;13.806;2022-12-18T15:21:57;15.40;;;5.63;;
65377;SDS011;51982;51.042;13.806;2022-12-18T15:24:24;15.45;;;4.85;;
65377;SDS011;51982;51.042;13.806;2022-12-18T15:26:54;16.25;;;6.82;;
65377;SDS011;51982;51.042;13.806;2022-12-18T15:29:21;13.88;;;5.70;;
65377;SDS011;51982;51.042;13.806;2022-12-18T15:32:00;12.63;;;4.57;;
65377;SDS011;51982;51.042;13.806;2022-12-18T15:34:27;13.05;;;3.53;;
65377;SDS011;51982;51.042;13.806;2022-12-18T15:36:53;11.43;;;5.38;;
65377;SDS011;51982;51.042;13.806;2022-12-18T15:39:18;8.25;;;3.80;;
65377;SDS011;51982;51.042;13.806;2022-12-18T15:41:44;13.35;;;5.95;;
65377;SDS011;51982;51.042;13.806;2022-12-18T15:44:29;14.57;;;5.75;;
65377;SDS011;51982;51.042;13.806;2022-12-18T15:46:55;7.55;;;3.97;;
65377;SDS011;51982;51.042;13.806;2022-12-18T15:49:20;13.20;;;5.07;;
65377;SDS011;51982;51.042;13.806;2022-12-18T15:51:50;10.07;;;4.05;;
65377;SDS011;51982;51.042;13.806;2022-12-18T15:54:18;13.93;;;5.57;;
65377;SDS011;51982;51.042;13.806;2022-12-18T15:57:03;13.85;;;5.32;;
65377;SDS011;51982;51.042;13.806;2022-12-18T15:59:47;17.75;;;7.57;;
65377;SDS011;51982;51.042;13.806;2022-12-18T16:02:15;12.82;;;5.38;;
65377;SDS011;51982;51.042;13.806;2022-12-18T16:04:42;11.30;;;5.72;;
65377;SDS011;51982;51.042;13.806;2022-12-18T16:07:08;11.38;;;4.82;;
65377;SDS011;51982;51.042;13.806;2022-12-18T16:09:34;11.43;;;5.07;;
65377;SDS011;51982;51.042;13.806;2022-12-18T16:12:01;12.65;;;5.13;;
65377;SDS011;51982;51.042;13.806;2022-12-18T16:14:27;14.40;;;5.72;;
65377;SDS011;51982;51.042;13.806;2022-12-18T16:19:23;8.35;;;4.47;;
65377;SDS011;51982;51.042;13.806;2022-12-18T16:21:50;9.80;;;4.93;;
65377;SDS011;51982;51.042;13.806;2022-12-18T16:24:17;15.90;;;6.65;;
65377;SDS011;51982;51.042;13.806;2022-12-18T16:26:44;18.35;;;7.05;;
65377;SDS011;51982;51.042;13.806;2022-12-18T16:29:10;17.42;;;5.47;;
65377;SDS011;51982;51.042;13.806;2022-12-18T16:31:35;14.55;;;5.72;;
65377;SDS011;51982;51.042;13.806;2022-12-18T16:36:56;9.82;;;4.43;;
65377;SDS011;51982;51.042;13.806;2022-12-18T16:39:26;18.02;;;7.00;;
65377;SDS011;51982;51.042;13.806;2022-12-18T16:41:51;15.20;;;6.53;;